Airfield :
LOGIN :

Register | Disclaimer

   EN    FR    IT 

 










Legend :    VFR   Marginal VFR   IFR   Intensive IFR   Very Intensive IFR
Visi :
Ceiling :
>= 8 km
>= 3000ft
5 to 8 km
1000 to 3000 ft
1500m to 5 km
500 to 1000 ft
800 to 1500m
200 to 500 ft
< 800m
< 200 ft
Symbols :   Thunderstorms  Fog  Heavy snow  Heavy precipitations  Wind > 20 kt
SIGMETs :     Misc.  Thunderstorms  Icing  Turbulence  Mountain Waves  Volcanic Ashes







- Airport Elevation : 885 ft
- IATA code : BAS
- Download approach charts


LFSB - Bale-Mulhouse

CURRENT METAR :
  • 191300Z 26008KT 230V290 9999 FEW050 SCT076 BKN098 06/02 Q1013 TEMPO 30015G25KT 4000 SHRA FEW025CB

EXPIRED METARs :
  • 191230Z 24005KT 210V280 9999 FEW016 SCT073 BKN090 06/02 Q1014 NOSIG
  • 191200Z 25016KT 210V280 8000 -SHRA FEW015 FEW030TCU BKN041 05/01 Q1014 TEMPO 28015G25KT
  • 191130Z 25007KT 220V290 9999 FEW033 BKN045 BKN055 07/01 Q1014 NOSIG
  • 191100Z 24010KT 9999 FEW030 BKN035 BKN051 06/01 Q1015 NOSIG
  • 191030Z 25006KT 230V290 9999 SCT027 SCT038 BKN046 06/01 Q1015 NOSIG

TAF AMD TAF LFSB
Valid from the 19 at 12:00 until the 20 at 12:00 UTC


191149Z 1912/2012 24008KT 9999 SCT030 BKN050
TEMPO 1912/1921 30015G25KT 4000 SHRA FEW025CB
PROB40
TEMPO 1912/1921 2000 SHRAGS
PROB30
TEMPO 1921/2006 -SHRA
Met : +33 3 89 90 31 11
No reported NOTAMs for that airfield.



MET'MAP, your aeronautical weather chart ! - Copyright ORBIFLY December 2007 - Disclaimer

ORBIFLY MET'MAP TEAM :

Programming & Development : Alexandra Zaïnal
Concept & Development : Baudouin d'Aumeries
Co-Development & Prog : Marc-Olivier Méhu
Technical & hardware support : Manuel Goepfert

Contact : metmap@orbifly.com




SOURCES & CREDITS :

   NOAA